Time;durP1;ratioP1;P1;durP2;ratioP2;P2;SDS_P1;SDS_P2;PMS_P1;PMS_P2;Temp;Humidity;BMP_temperature;BMP_pressure;BME280_temperature;BME280_humidity;BME280_pressure;Samples;Min_cycle;Max_cycle;Signal;HPM_P1;HPM_P2
2023/10/19 00:00:56;;;;;;;;;;;22.40;41.30;;;;;;5076496;28;19936;-63
2023/10/19 00:03:24;;;;;;;;;;;22.40;41.30;;;;;;5075956;28;20408;-63
2023/10/19 00:05:51;;;;;;;;;;;22.40;41.30;;;;;;5093451;28;19946;-63
2023/10/19 00:08:21;;;;;;;;;;;22.40;41.40;;;;;;5087068;28;20392;-62
2023/10/19 00:11:09;;;;;;;;;;;22.40;41.30;;;;;;5075898;28;19960;-63
2023/10/19 00:13:40;;;;;;;;;;;22.40;41.30;;;;;;5075181;28;20023;-63
2023/10/19 00:16:22;;;;;;;;;;;22.40;41.30;;;;;;5075756;28;19931;-63
2023/10/19 00:18:49;;;;;;;;;;;22.40;41.30;;;;;;5076021;28;19924;-63
2023/10/19 00:21:27;;;;;;;;;;;22.40;41.40;;;;;;5075648;28;19935;-62
2023/10/19 00:24:03;;;;;;;;;;;22.40;41.40;;;;;;5075003;28;20011;-62
2023/10/19 00:26:30;;;;;;;;;;;22.40;41.40;;;;;;5085908;28;20034;-62
2023/10/19 00:28:57;;;;;;;;;;;22.40;41.40;;;;;;5094508;28;19924;-62
2023/10/19 00:31:27;;;;;;;;;;;22.40;41.40;;;;;;5096314;28;19930;-64
2023/10/19 00:33:55;;;;;;;;;;;22.40;41.40;;;;;;5096225;28;19924;-64
2023/10/19 00:36:23;;;;;;;;;;;22.40;41.40;;;;;;5096163;28;19932;-63
2023/10/19 00:38:53;;;;;;;;;;;22.40;41.50;;;;;;5095896;28;19985;-63
2023/10/19 00:41:29;;;;;;;;;;;22.40;41.50;;;;;;5095053;28;19932;-63
2023/10/19 00:44:07;;;;;;;;;;;22.40;41.40;;;;;;5095460;28;19935;-63
2023/10/19 00:46:43;;;;;;;;;;;22.40;41.40;;;;;;5094892;28;19970;-63
2023/10/19 00:49:15;;;;;;;;;;;22.50;41.40;;;;;;5085163;28;19924;-62
2023/10/19 00:51:55;;;;;;;;;;;22.50;41.40;;;;;;5075215;28;19924;-63
2023/10/19 00:54:26;;;;;;;;;;;22.40;41.40;;;;;;5073968;28;19924;-62
2023/10/19 00:57:03;;;;;;;;;;;22.50;41.40;;;;;;5074606;28;19925;-63
2023/10/19 00:59:30;;;;;;;;;;;22.50;41.40;;;;;;5088343;28;19928;-62
2023/10/19 01:02:19;;;;;;;;;;;22.40;41.40;;;;;;5095142;28;19958;-62
2023/10/19 01:04:50;;;;;;;;;;;22.50;41.40;;;;;;5094259;28;19954;-64
2023/10/19 01:07:27;;;;;;;;;;;22.40;41.40;;;;;;5094738;28;20342;-63
2023/10/19 01:09:56;;;;;;;;;;;22.40;41.30;;;;;;5093812;28;20372;-63
2023/10/19 01:12:38;;;;;;;;;;;22.40;41.30;;;;;;5075145;28;19924;-63
2023/10/19 01:15:13;;;;;;;;;;;22.40;41.40;;;;;;5073721;28;19929;-63
2023/10/19 01:17:43;;;;;;;;;;;22.40;41.40;;;;;;5074484;28;20384;-62
2023/10/19 01:23:21;;;;;;;;;;;22.40;41.40;;;;;;5073384;28;19925;-64
2023/10/19 01:25:59;;;;;;;;;;;22.40;41.50;;;;;;5072778;28;19936;-63
2023/10/19 01:28:47;;;;;;;;;;;22.40;42.00;;;;;;5073830;28;19929;-62
2023/10/19 01:31:29;;;;;;;;;;;22.40;41.50;;;;;;5072785;28;19932;-63
2023/10/19 01:33:57;;;;;;;;;;;22.40;41.50;;;;;;5074507;28;19936;-63
2023/10/19 01:36:25;;;;;;;;;;;22.40;42.10;;;;;;5073426;28;20003;-63
2023/10/19 01:39:00;;;;;;;;;;;22.40;41.50;;;;;;5073966;28;19924;-63
2023/10/19 01:41:30;;;;;;;;;;;22.40;41.50;;;;;;5073790;28;19925;-63
2023/10/19 01:44:04;;;;;;;;;;;22.40;41.50;;;;;;5072320;28;20338;-63
2023/10/19 01:46:36;;;;;;;;;;;22.40;41.50;;;;;;5073433;28;20376;-63
2023/10/19 01:49:04;;;;;;;;;;;22.40;41.50;;;;;;5072799;28;19930;-63
2023/10/19 01:51:33;;;;;;;;;;;22.40;41.50;;;;;;5072956;28;19956;-63
2023/10/19 01:54:03;;;;;;;;;;;22.40;41.50;;;;;;5073471;28;19925;-63
2023/10/19 01:56:30;;;;;;;;;;;22.40;41.50;;;;;;5073075;28;19972;-62
2023/10/19 01:58:58;;;;;;;;;;;22.40;41.50;;;;;;5073845;28;19929;-63
2023/10/19 02:01:28;;;;;;;;;;;22.40;41.50;;;;;;5072738;28;19932;-63
2023/10/19 02:03:58;;;;;;;;;;;22.40;41.50;;;;;;5073141;28;19925;-63
2023/10/19 02:06:36;;;;;;;;;;;22.40;41.50;;;;;;5072591;28;19978;-62
2023/10/19 02:11:53;;;;;;;;;;;22.40;41.50;;;;;;5073326;28;19977;-63
2023/10/19 02:14:20;;;;;;;;;;;22.40;41.50;;;;;;5073185;28;19924;-63
2023/10/19 02:16:56;;;;;;;;;;;22.40;41.50;;;;;;5072696;28;19929;-63
2023/10/19 02:19:25;;;;;;;;;;;22.40;41.50;;;;;;5072913;28;19924;-63
2023/10/19 02:21:56;;;;;;;;;;;22.40;41.50;;;;;;5073384;28;19931;-64
2023/10/19 02:24:24;;;;;;;;;;;22.40;41.50;;;;;;5072147;28;19924;-63
2023/10/19 02:26:53;;;;;;;;;;;22.40;41.50;;;;;;5072352;28;20305;-62
2023/10/19 02:29:25;;;;;;;;;;;22.40;41.50;;;;;;5072049;28;20400;-63
2023/10/19 02:31:54;;;;;;;;;;;22.40;41.50;;;;;;5078624;28;19924;-63
2023/10/19 02:34:22;;;;;;;;;;;22.40;41.50;;;;;;5092538;28;19990;-63
2023/10/19 02:36:50;;;;;;;;;;;22.40;41.50;;;;;;5093008;28;20368;-63
2023/10/19 02:39:17;;;;;;;;;;;22.40;41.50;;;;;;5093327;28;20160;-63
2023/10/19 02:41:47;;;;;;;;;;;22.40;41.50;;;;;;5093002;28;19967;-62
2023/10/19 02:44:22;;;;;;;;;;;22.40;41.50;;;;;;5093548;28;19924;-63
2023/10/19 02:46:51;;;;;;;;;;;22.40;41.50;;;;;;5092339;28;19930;-63
2023/10/19 02:49:20;;;;;;;;;;;22.40;41.50;;;;;;5092722;28;20002;-63
2023/10/19 02:51:48;;;;;;;;;;;22.40;41.50;;;;;;5091782;28;19940;-63
2023/10/19 02:54:22;;;;;;;;;;;22.40;41.50;;;;;;5092925;28;19924;-63
2023/10/19 02:56:52;;;;;;;;;;;22.40;41.50;;;;;;5093202;28;19930;-62
2023/10/19 02:59:22;;;;;;;;;;;22.40;41.50;;;;;;5092525;28;19977;-63
2023/10/19 03:02:15;;;;;;;;;;;22.40;41.50;;;;;;5092469;28;20386;-62
2023/10/19 03:04:42;;;;;;;;;;;22.40;41.50;;;;;;5092495;28;19935;-62
2023/10/19 03:07:12;;;;;;;;;;;22.40;41.50;;;;;;5093320;28;19924;-63
2023/10/19 03:09:39;;;;;;;;;;;22.40;41.50;;;;;;5092187;28;20016;-63
2023/10/19 03:12:10;;;;;;;;;;;22.40;41.50;;;;;;5093712;28;19928;-63
2023/10/19 03:14:37;;;;;;;;;;;22.40;41.60;;;;;;5092364;28;19973;-63
2023/10/19 03:17:05;;;;;;;;;;;22.40;41.60;;;;;;5092451;28;20007;-63
2023/10/19 03:19:33;;;;;;;;;;;22.40;41.60;;;;;;5091962;28;20026;-63
2023/10/19 03:22:00;;;;;;;;;;;22.40;41.60;;;;;;5094582;28;20026;-63
2023/10/19 03:24:40;;;;;;;;;;;22.40;41.60;;;;;;5096330;28;20284;-63
2023/10/19 03:27:12;;;;;;;;;;;22.40;41.60;;;;;;5096216;28;19932;-63
2023/10/19 03:29:40;;;;;;;;;;;22.40;41.60;;;;;;5096527;28;20338;-63
2023/10/19 03:32:07;;;;;;;;;;;22.30;41.60;;;;;;5096848;28;20019;-63
2023/10/19 03:34:35;;;;;;;;;;;22.40;41.70;;;;;;5095760;28;19928;-63
2023/10/19 03:37:07;;;;;;;;;;;22.40;41.60;;;;;;5095974;28;20335;-63
2023/10/19 03:39:37;;;;;;;;;;;22.40;41.60;;;;;;5096471;28;20011;-63
2023/10/19 03:42:06;;;;;;;;;;;22.40;41.60;;;;;;5096886;28;19924;-65
2023/10/19 03:44:50;;;;;;;;;;;22.40;41.60;;;;;;5095743;28;20336;-63
2023/10/19 03:47:20;;;;;;;;;;;22.40;41.60;;;;;;5110243;28;20011;-63
2023/10/19 03:49:51;;;;;;;;;;;22.40;41.60;;;;;;5115193;28;20340;-63
2023/10/19 03:52:20;;;;;;;;;;;22.40;41.60;;;;;;5093332;27;19932;-63
2023/10/19 03:54:47;;;;;;;;;;;22.40;41.60;;;;;;5075673;28;20418;-63
2023/10/19 03:57:19;;;;;;;;;;;22.40;41.60;;;;;;5074523;28;20365;-63
2023/10/19 03:59:50;;;;;;;;;;;22.40;41.60;;;;;;5075780;28;19934;-63
2023/10/19 04:02:20;;;;;;;;;;;22.40;41.60;;;;;;5086102;28;20417;-63
2023/10/19 04:04:48;;;;;;;;;;;22.40;41.60;;;;;;5075389;28;19935;-63
2023/10/19 04:07:20;;;;;;;;;;;22.40;41.60;;;;;;5075549;28;19993;-63
2023/10/19 04:10:09;;;;;;;;;;;22.40;41.70;;;;;;5093588;28;19932;-63
2023/10/19 04:12:37;;;;;;;;;;;22.40;41.60;;;;;;5075215;28;19931;-63
2023/10/19 04:15:15;;;;;;;;;;;22.40;41.60;;;;;;5074990;28;20044;-65
2023/10/19 04:17:46;;;;;;;;;;;22.40;41.70;;;;;;5074649;28;19925;-63
2023/10/19 04:23:05;;;;;;;;;;;22.30;41.70;;;;;;5074690;28;20350;-64
2023/10/19 04:25:32;;;;;;;;;;;22.30;41.70;;;;;;5074637;28;19925;-66
2023/10/19 04:28:00;;;;;;;;;;;22.40;41.80;;;;;;5075329;28;20276;-67
2023/10/19 04:30:27;;;;;;;;;;;22.30;41.70;;;;;;5075206;28;19924;-65
2023/10/19 04:32:57;;;;;;;;;;;22.30;41.70;;;;;;5075249;28;19979;-64
2023/10/19 04:35:29;;;;;;;;;;;22.30;41.70;;;;;;5085025;28;20319;-63
2023/10/19 04:37:57;;;;;;;;;;;22.30;41.70;;;;;;5084866;28;19930;-64
2023/10/19 04:40:24;;;;;;;;;;;22.30;41.70;;;;;;5083309;28;19931;-64
2023/10/19 04:42:51;;;;;;;;;;;22.30;41.70;;;;;;5095228;28;19924;-63
2023/10/19 04:45:18;;;;;;;;;;;22.40;41.60;;;;;;5094634;28;19928;-63
2023/10/19 04:47:46;;;;;;;;;;;22.40;41.60;;;;;;5094739;28;19928;-63
2023/10/19 04:50:13;;;;;;;;;;;22.40;41.60;;;;;;5086604;28;20007;-63
2023/10/19 04:52:40;;;;;;;;;;;22.40;41.50;;;;;;5079291;28;20379;-62
2023/10/19 04:55:08;;;;;;;;;;;22.40;41.50;;;;;;5095470;28;20360;-62
2023/10/19 04:57:34;;;;;;;;;;;22.40;41.50;;;;;;5095054;28;20018;-63
2023/10/19 05:00:03;;;;;;;;;;;22.40;41.50;;;;;;5094622;28;20015;-62
2023/10/19 05:02:30;;;;;;;;;;;22.40;41.50;;;;;;5094460;28;19977;-62
2023/10/19 05:04:57;;;;;;;;;;;22.40;41.50;;;;;;5090007;28;19924;-63
2023/10/19 05:07:26;;;;;;;;;;;22.40;41.50;;;;;;5081681;28;19924;-63
2023/10/19 05:09:53;;;;;;;;;;;22.40;41.50;;;;;;5087029;28;19955;-62
2023/10/19 05:12:21;;;;;;;;;;;22.40;41.50;;;;;;5083398;28;19931;-62
2023/10/19 05:14:48;;;;;;;;;;;22.40;41.60;;;;;;5080695;28;19973;-63
2023/10/19 05:17:16;;;;;;;;;;;22.40;41.70;;;;;;5088451;28;20019;-63
2023/10/19 05:19:43;;;;;;;;;;;22.40;41.90;;;;;;5088246;28;19924;-62
2023/10/19 05:22:11;;;;;;;;;;;22.40;42.10;;;;;;5074994;28;19924;-62
2023/10/19 05:24:38;;;;;;;;;;;22.40;42.20;;;;;;5077458;28;19928;-61
2023/10/19 05:27:05;;;;;;;;;;;22.40;42.30;;;;;;5069897;28;20415;-63
2023/10/19 05:29:34;;;;;;;;;;;22.40;42.60;;;;;;5072782;28;20014;-62
2023/10/19 05:32:03;;;;;;;;;;;22.40;43.30;;;;;;5075587;28;20295;-62
2023/10/19 05:34:32;;;;;;;;;;;22.40;43.00;;;;;;5077256;28;20389;-62
2023/10/19 05:37:02;;;;;;;;;;;22.50;43.30;;;;;;5079264;28;20327;-61
2023/10/19 05:39:31;;;;;;;;;;;22.50;43.40;;;;;;5073350;28;19978;-61
2023/10/19 05:42:00;;;;;;;;;;;22.50;43.40;;;;;;5070460;28;20440;-61
2023/10/19 05:44:30;;;;;;;;;;;22.60;43.30;;;;;;5077551;28;19982;-61
2023/10/19 05:47:02;;;;;;;;;;;22.60;43.30;;;;;;5073025;28;20288;-62
2023/10/19 05:49:29;;;;;;;;;;;22.60;43.20;;;;;;5074297;28;19924;-62
2023/10/19 05:51:56;;;;;;;;;;;22.70;43.20;;;;;;5077731;28;19925;-61
2023/10/19 05:54:23;;;;;;;;;;;22.70;43.10;;;;;;5078824;28;20265;-62
2023/10/19 05:56:52;;;;;;;;;;;22.70;43.00;;;;;;5075790;28;20011;-64
2023/10/19 05:59:19;;;;;;;;;;;22.80;42.90;;;;;;5074489;28;19993;-63
2023/10/19 06:01:47;;;;;;;;;;;22.80;42.80;;;;;;5071562;28;19928;-63
2023/10/19 06:04:16;;;;;;;;;;;22.80;42.70;;;;;;5070039;28;19929;-63
2023/10/19 06:06:48;;;;;;;;;;;22.80;42.60;;;;;;5073305;28;19928;-63
2023/10/19 06:09:17;;;;;;;;;;;22.90;42.60;;;;;;5070465;28;20425;-64
2023/10/19 06:11:44;;;;;;;;;;;22.90;42.60;;;;;;5068932;28;19939;-63
2023/10/19 06:14:11;;;;;;;;;;;22.90;42.70;;;;;;5072149;28;19977;-62
2023/10/19 06:16:38;;;;;;;;;;;23.00;42.80;;;;;;5075713;28;20005;-61
2023/10/19 06:19:06;;;;;;;;;;;23.00;42.90;;;;;;5069886;28;20411;-63
2023/10/19 06:21:33;;;;;;;;;;;23.00;43.10;;;;;;5074464;28;19932;-63
2023/10/19 06:24:00;;;;;;;;;;;23.10;43.20;;;;;;5074822;28;20590;-63
2023/10/19 06:26:28;;;;;;;;;;;23.20;43.40;;;;;;5076585;28;19928;-64
2023/10/19 06:28:58;;;;;;;;;;;23.20;43.60;;;;;;5070612;28;19932;-62
2023/10/19 06:31:28;;;;;;;;;;;23.30;43.60;;;;;;5077828;28;20392;-62
2023/10/19 06:34:00;;;;;;;;;;;23.30;43.50;;;;;;5078256;28;19924;-64
2023/10/19 06:36:29;;;;;;;;;;;23.40;43.50;;;;;;5077607;28;19933;-63
2023/10/19 06:38:56;;;;;;;;;;;23.40;44.10;;;;;;5074146;28;19928;-61
2023/10/19 06:41:23;;;;;;;;;;;23.40;43.50;;;;;;5074380;28;19935;-63
2023/10/19 06:43:50;;;;;;;;;;;23.50;43.40;;;;;;5075232;28;19944;-62
2023/10/19 06:46:17;;;;;;;;;;;23.50;43.20;;;;;;5074081;28;19971;-62
2023/10/19 06:48:46;;;;;;;;;;;23.60;43.20;;;;;;5072379;28;19928;-62
2023/10/19 06:51:16;;;;;;;;;;;23.60;43.10;;;;;;5080085;28;19957;-61
2023/10/19 06:53:43;;;;;;;;;;;23.70;43.10;;;;;;5073785;28;20011;-62
2023/10/19 06:56:10;;;;;;;;;;;23.70;43.10;;;;;;5078295;28;19971;-60
2023/10/19 06:58:37;;;;;;;;;;;23.70;42.80;;;;;;5076681;28;19982;-61
2023/10/19 07:01:08;;;;;;;;;;;23.80;42.80;;;;;;5072304;28;19933;-63
2023/10/19 07:03:35;;;;;;;;;;;23.80;42.80;;;;;;5070256;28;19928;-62
2023/10/19 07:06:03;;;;;;;;;;;23.80;42.70;;;;;;5074949;28;20343;-64
2023/10/19 07:08:35;;;;;;;;;;;23.80;42.40;;;;;;5075852;28;19932;-62
2023/10/19 07:11:02;;;;;;;;;;;23.90;42.30;;;;;;5073126;28;19932;-62
2023/10/19 07:13:32;;;;;;;;;;;23.90;42.30;;;;;;5070078;28;19929;-65
2023/10/19 07:16:00;;;;;;;;;;;23.90;42.30;;;;;;5077670;28;20036;-61
2023/10/19 07:18:28;;;;;;;;;;;23.90;42.20;;;;;;5078362;28;19928;-64
2023/10/19 07:21:03;;;;;;;;;;;24.00;42.20;;;;;;5073075;28;20093;-65
2023/10/19 07:23:30;;;;;;;;;;;24.00;42.10;;;;;;5070861;28;19924;-65
2023/10/19 07:26:00;;;;;;;;;;;24.00;42.70;;;;;;5071044;28;20073;-63
2023/10/19 07:28:27;;;;;;;;;;;24.00;41.90;;;;;;5073610;28;20327;-65
2023/10/19 07:30:55;;;;;;;;;;;24.10;41.80;;;;;;5076427;28;19974;-63
2023/10/19 07:33:24;;;;;;;;;;;24.10;41.80;;;;;;5074444;28;20015;-63
2023/10/19 07:35:59;;;;;;;;;;;24.20;41.70;;;;;;5080794;28;20284;-65
2023/10/19 07:38:28;;;;;;;;;;;24.20;41.80;;;;;;5078889;28;19924;-62
2023/10/19 07:40:56;;;;;;;;;;;24.20;41.60;;;;;;5077579;28;19962;-62
2023/10/19 07:43:25;;;;;;;;;;;24.30;41.70;;;;;;5079696;28;19975;-63
2023/10/19 07:45:52;;;;;;;;;;;24.30;41.60;;;;;;5075539;28;19939;-64
2023/10/19 07:48:20;;;;;;;;;;;24.30;41.70;;;;;;5082253;28;20250;-64
2023/10/19 07:50:47;;;;;;;;;;;24.30;41.70;;;;;;5074192;28;20353;-64
2023/10/19 07:53:14;;;;;;;;;;;24.30;41.70;;;;;;5076001;28;19931;-65
2023/10/19 07:55:43;;;;;;;;;;;24.30;41.60;;;;;;5071425;28;20311;-63
2023/10/19 07:58:10;;;;;;;;;;;24.40;41.60;;;;;;5076239;28;20018;-64
2023/10/19 08:00:37;;;;;;;;;;;24.40;41.60;;;;;;5076041;28;19928;-64
2023/10/19 08:03:05;;;;;;;;;;;24.40;41.60;;;;;;5073757;28;20346;-64
2023/10/19 08:05:33;;;;;;;;;;;24.50;41.40;;;;;;5073522;28;19925;-61
2023/10/19 08:08:03;;;;;;;;;;;24.50;41.40;;;;;;5077459;28;19924;-62
2023/10/19 08:10:31;;;;;;;;;;;24.50;41.50;;;;;;5076137;28;20261;-60
2023/10/19 08:12:59;;;;;;;;;;;24.60;41.50;;;;;;5078393;28;19928;-61
2023/10/19 08:15:26;;;;;;;;;;;24.60;41.50;;;;;;5076072;28;19943;-62
2023/10/19 08:17:54;;;;;;;;;;;24.60;41.50;;;;;;5074985;28;19932;-62
2023/10/19 08:20:31;;;;;;;;;;;24.60;41.50;;;;;;5081724;28;20023;-62
2023/10/19 08:23:01;;;;;;;;;;;24.70;41.50;;;;;;5077628;28;19928;-61
2023/10/19 08:25:29;;;;;;;;;;;24.70;41.50;;;;;;5070260;28;19935;-61
2023/10/19 08:27:59;;;;;;;;;;;24.70;41.60;;;;;;5071964;28;19932;-61
2023/10/19 08:30:27;;;;;;;;;;;24.70;41.60;;;;;;5071335;28;20329;-62
2023/10/19 08:32:54;;;;;;;;;;;24.70;41.50;;;;;;5079302;28;20321;-62
2023/10/19 08:35:24;;;;;;;;;;;24.70;41.60;;;;;;5077212;28;19931;-61
2023/10/19 08:37:53;;;;;;;;;;;24.80;41.70;;;;;;5088466;28;19931;-63
2023/10/19 08:40:21;;;;;;;;;;;24.80;41.70;;;;;;5078657;28;19925;-61
2023/10/19 08:42:48;;;;;;;;;;;24.80;41.70;;;;;;5078327;28;20447;-61
2023/10/19 08:45:18;;;;;;;;;;;24.90;41.60;;;;;;5074956;28;19932;-61
2023/10/19 08:47:53;;;;;;;;;;;24.90;41.50;;;;;;5070923;28;20077;-60
2023/10/19 08:50:23;;;;;;;;;;;25.00;41.40;;;;;;5075059;28;19927;-60
2023/10/19 08:52:52;;;;;;;;;;;25.00;41.60;;;;;;5072401;28;19935;-60
2023/10/19 08:55:19;;;;;;;;;;;25.00;41.60;;;;;;5072451;28;19928;-60
2023/10/19 08:58:05;;;;;;;;;;;25.00;41.70;;;;;;5075053;28;19932;-61
2023/10/19 09:00:46;;;;;;;;;;;25.00;41.60;;;;;;5074868;28;19928;-62
2023/10/19 09:03:16;;;;;;;;;;;25.00;41.50;;;;;;5073240;28;19932;-63
2023/10/19 09:05:48;;;;;;;;;;;25.10;41.60;;;;;;5072124;28;19959;-64
2023/10/19 09:08:16;;;;;;;;;;;25.10;41.40;;;;;;5075659;28;20441;-62
2023/10/19 09:10:48;;;;;;;;;;;25.20;41.10;;;;;;5076478;28;19924;-63
2023/10/19 09:13:18;;;;;;;;;;;25.20;40.90;;;;;;5080480;28;19939;-64
2023/10/19 09:15:48;;;;;;;;;;;25.30;41.10;;;;;;5081636;28;19927;-63
2023/10/19 09:18:20;;;;;;;;;;;25.30;41.10;;;;;;5072230;28;19942;-62
2023/10/19 09:20:55;;;;;;;;;;;25.30;40.80;;;;;;5076470;28;20016;-62
2023/10/19 09:23:23;;;;;;;;;;;25.40;41.00;;;;;;5074450;28;19924;-63
2023/10/19 09:25:52;;;;;;;;;;;25.40;41.10;;;;;;5073737;28;19932;-62
2023/10/19 09:28:20;;;;;;;;;;;25.40;41.10;;;;;;5075258;28;20031;-67
2023/10/19 09:30:48;;;;;;;;;;;25.40;41.00;;;;;;5071506;28;19931;-67
2023/10/19 09:33:17;;;;;;;;;;;25.40;41.00;;;;;;5076590;28;19928;-67
2023/10/19 09:35:48;;;;;;;;;;;25.40;41.00;;;;;;5076307;28;19935;-67
2023/10/19 09:38:21;;;;;;;;;;;25.40;40.90;;;;;;5074263;28;20016;-69
2023/10/19 09:40:49;;;;;;;;;;;25.40;41.00;;;;;;5076193;28;20031;-67
2023/10/19 09:43:24;;;;;;;;;;;25.40;41.00;;;;;;5069789;28;19982;-69
2023/10/19 09:45:53;;;;;;;;;;;25.40;41.00;;;;;;5069893;28;19977;-70
2023/10/19 09:48:20;;;;;;;;;;;25.40;40.80;;;;;;5077914;28;20396;-68
2023/10/19 09:50:51;;;;;;;;;;;25.40;40.80;;;;;;5069563;28;20023;-69
2023/10/19 09:53:18;;;;;;;;;;;25.40;40.80;;;;;;5076632;28;20011;-69
2023/10/19 09:55:46;;;;;;;;;;;25.40;40.90;;;;;;5069182;28;20400;-66
2023/10/19 09:58:17;;;;;;;;;;;25.40;40.90;;;;;;5068836;28;19936;-72
2023/10/19 10:00:45;;;;;;;;;;;25.50;41.00;;;;;;5072824;28;19924;-67
2023/10/19 10:03:32;;;;;;;;;;;25.50;41.00;;;;;;5076140;28;19935;-71
2023/10/19 10:05:59;;;;;;;;;;;25.50;41.00;;;;;;5078076;28;19924;-67
2023/10/19 10:08:29;;;;;;;;;;;25.50;40.90;;;;;;5076504;28;20287;-68
2023/10/19 10:10:56;;;;;;;;;;;25.50;40.90;;;;;;5078197;28;19978;-67
2023/10/19 10:13:42;;;;;;;;;;;25.50;40.90;;;;;;5077230;28;19931;-65
2023/10/19 10:16:12;;;;;;;;;;;25.50;41.00;;;;;;5079396;28;19924;-64
2023/10/19 10:18:40;;;;;;;;;;;25.50;41.00;;;;;;5074424;28;20272;-64
2023/10/19 10:21:11;;;;;;;;;;;25.50;41.20;;;;;;5081584;28;19924;-64
2023/10/19 10:23:54;;;;;;;;;;;25.50;41.30;;;;;;5079603;28;19959;-65
2023/10/19 10:26:25;;;;;;;;;;;25.50;41.40;;;;;;5085370;28;19932;-64
2023/10/19 10:29:14;;;;;;;;;;;25.50;41.50;;;;;;5089024;28;19927;-64
2023/10/19 10:31:43;;;;;;;;;;;25.50;41.50;;;;;;5078846;28;20018;-65
2023/10/19 10:34:11;;;;;;;;;;;25.50;41.50;;;;;;5078130;28;20125;-66
2023/10/19 10:36:58;;;;;;;;;;;25.40;41.50;;;;;;5079784;28;19959;-64
2023/10/19 10:39:26;;;;;;;;;;;25.50;41.60;;;;;;5078672;28;19933;-64
2023/10/19 10:41:57;;;;;;;;;;;25.50;41.60;;;;;;5075965;28;19932;-63
2023/10/19 10:44:40;;;;;;;;;;;25.40;41.60;;;;;;5073444;28;20326;-63
2023/10/19 10:47:09;;;;;;;;;;;25.40;41.60;;;;;;5074671;28;19924;-62
2023/10/19 10:49:49;;;;;;;;;;;25.40;41.60;;;;;;5079212;28;20019;-62
2023/10/19 10:52:31;;;;;;;;;;;25.50;41.60;;;;;;5077367;28;20631;-62
2023/10/19 10:55:06;;;;;;;;;;;25.50;41.60;;;;;;5078679;28;20015;-63
2023/10/19 10:57:34;;;;;;;;;;;25.60;41.80;;;;;;5072005;28;19958;-62
2023/10/19 11:00:03;;;;;;;;;;;25.60;41.80;;;;;;5071960;28;19928;-60
2023/10/19 11:02:31;;;;;;;;;;;25.60;41.80;;;;;;5072198;28;19981;-61
2023/10/19 11:04:58;;;;;;;;;;;25.70;41.90;;;;;;5075242;28;19924;-62
2023/10/19 11:07:25;;;;;;;;;;;25.70;41.70;;;;;;5072229;28;19935;-61
2023/10/19 11:09:52;;;;;;;;;;;25.70;41.60;;;;;;5071928;28;19933;-59
2023/10/19 11:12:24;;;;;;;;;;;25.80;41.70;;;;;;5074445;28;19935;-60
2023/10/19 11:14:59;;;;;;;;;;;25.80;41.80;;;;;;5072103;28;19936;-64
2023/10/19 11:17:30;;;;;;;;;;;25.80;41.60;;;;;;5074683;28;20018;-60
2023/10/19 11:19:58;;;;;;;;;;;25.90;41.60;;;;;;5069392;28;19932;-62
2023/10/19 11:22:26;;;;;;;;;;;25.90;41.60;;;;;;5073471;28;19932;-62
2023/10/19 11:24:54;;;;;;;;;;;26.00;41.60;;;;;;5074205;28;20067;-60
2023/10/19 11:27:26;;;;;;;;;;;26.00;41.40;;;;;;5071479;28;19933;-61
2023/10/19 11:29:57;;;;;;;;;;;26.10;41.50;;;;;;5072274;28;19943;-61
2023/10/19 11:32:25;;;;;;;;;;;26.10;41.50;;;;;;5074263;28;19993;-62
2023/10/19 11:34:54;;;;;;;;;;;26.10;41.60;;;;;;5073045;28;19989;-60
2023/10/19 11:37:21;;;;;;;;;;;26.10;41.70;;;;;;5073190;28;19924;-62
2023/10/19 11:39:49;;;;;;;;;;;26.10;41.80;;;;;;5072450;28;19943;-62
2023/10/19 11:42:18;;;;;;;;;;;26.10;41.80;;;;;;5074055;28;19933;-61
2023/10/19 11:44:45;;;;;;;;;;;26.10;41.90;;;;;;5073541;28;19967;-62
2023/10/19 11:47:16;;;;;;;;;;;26.10;41.80;;;;;;5078574;28;19962;-63
2023/10/19 11:49:43;;;;;;;;;;;26.10;41.70;;;;;;5077251;28;19970;-62
2023/10/19 11:52:10;;;;;;;;;;;26.10;41.60;;;;;;5075715;28;20006;-61
2023/10/19 11:54:38;;;;;;;;;;;26.10;41.70;;;;;;5074810;28;19928;-62
2023/10/19 11:57:05;;;;;;;;;;;26.20;41.80;;;;;;5078128;28;20334;-63
2023/10/19 11:59:33;;;;;;;;;;;26.20;41.70;;;;;;5080770;28;20023;-65
2023/10/19 12:02:03;;;;;;;;;;;26.20;41.70;;;;;;5080004;28;20000;-63
2023/10/19 12:04:32;;;;;;;;;;;26.20;41.70;;;;;;5075140;28;19924;-63
2023/10/19 12:07:00;;;;;;;;;;;26.20;41.80;;;;;;5077400;28;19927;-63
2023/10/19 12:09:28;;;;;;;;;;;26.20;41.70;;;;;;5081481;28;19924;-63
2023/10/19 12:11:55;;;;;;;;;;;26.20;41.70;;;;;;5078007;28;19986;-62
2023/10/19 12:14:22;;;;;;;;;;;26.20;41.70;;;;;;5076812;28;20459;-60
2023/10/19 12:16:49;;;;;;;;;;;26.30;41.70;;;;;;5069785;28;19932;-62
2023/10/19 12:19:18;;;;;;;;;;;26.30;41.90;;;;;;5071417;28;19928;-62
2023/10/19 12:21:46;;;;;;;;;;;26.30;42.00;;;;;;5073342;28;19932;-63
2023/10/19 12:24:15;;;;;;;;;;;26.30;41.90;;;;;;5075125;28;19967;-63
2023/10/19 12:26:42;;;;;;;;;;;26.30;41.90;;;;;;5078407;28;20013;-62
2023/10/19 12:29:11;;;;;;;;;;;26.30;41.90;;;;;;5075249;28;19959;-62
2023/10/19 12:31:39;;;;;;;;;;;26.30;42.00;;;;;;5077893;28;19932;-62
2023/10/19 12:34:07;;;;;;;;;;;26.30;42.10;;;;;;5082986;28;19924;-62
2023/10/19 12:36:35;;;;;;;;;;;26.30;42.00;;;;;;5076370;28;19973;-63
2023/10/19 12:39:04;;;;;;;;;;;26.20;42.00;;;;;;5074882;28;20029;-63
2023/10/19 12:41:34;;;;;;;;;;;26.20;42.20;;;;;;5093072;28;19924;-63
2023/10/19 12:44:07;;;;;;;;;;;26.20;42.20;;;;;;5076555;28;19928;-60
2023/10/19 12:46:36;;;;;;;;;;;26.20;42.30;;;;;;5077336;28;19932;-64
2023/10/19 12:49:08;;;;;;;;;;;26.20;42.30;;;;;;5078133;28;19932;-62
2023/10/19 12:51:35;;;;;;;;;;;26.20;42.30;;;;;;5078512;28;20454;-63
2023/10/19 12:54:03;;;;;;;;;;;26.20;42.40;;;;;;5079966;28;19924;-62
2023/10/19 12:56:33;;;;;;;;;;;26.20;42.40;;;;;;5079231;28;19931;-62
2023/10/19 12:59:00;;;;;;;;;;;26.20;42.50;;;;;;5075275;28;19955;-61
2023/10/19 13:01:28;;;;;;;;;;;26.20;42.60;;;;;;5072948;28;19940;-61
2023/10/19 13:03:55;;;;;;;;;;;26.20;42.80;;;;;;5070018;28;20430;-62
2023/10/19 13:06:29;;;;;;;;;;;26.20;42.60;;;;;;5075405;28;19929;-60
2023/10/19 13:08:56;;;;;;;;;;;26.20;42.60;;;;;;5073840;28;19990;-61
2023/10/19 13:11:24;;;;;;;;;;;26.20;42.90;;;;;;5077373;28;19928;-59
2023/10/19 13:13:51;;;;;;;;;;;26.20;43.20;;;;;;5071925;28;19938;-60
2023/10/19 13:16:18;;;;;;;;;;;26.20;43.20;;;;;;5076610;28;19938;-61
2023/10/19 13:18:46;;;;;;;;;;;26.20;43.20;;;;;;5071843;28;19959;-64
2023/10/19 13:21:16;;;;;;;;;;;26.20;43.20;;;;;;5076082;28;19932;-63
2023/10/19 13:23:44;;;;;;;;;;;26.20;43.30;;;;;;5078160;28;20017;-64
2023/10/19 13:26:17;;;;;;;;;;;26.20;43.20;;;;;;5074361;28;19930;-65
2023/10/19 13:28:44;;;;;;;;;;;26.20;43.00;;;;;;5069869;28;20485;-60
2023/10/19 13:31:13;;;;;;;;;;;26.20;43.00;;;;;;5074378;28;20014;-60
2023/10/19 13:33:45;;;;;;;;;;;26.20;43.10;;;;;;5077865;28;19924;-60
2023/10/19 13:36:13;;;;;;;;;;;26.20;43.30;;;;;;5075180;28;21555;-61
2023/10/19 13:38:41;;;;;;;;;;;26.20;43.30;;;;;;5073280;28;19924;-63
2023/10/19 13:41:09;;;;;;;;;;;26.20;43.20;;;;;;5075438;28;19928;-62
2023/10/19 13:43:38;;;;;;;;;;;26.20;43.50;;;;;;5075752;28;19935;-62
2023/10/19 13:46:05;;;;;;;;;;;26.30;43.50;;;;;;5080323;28;19924;-62
2023/10/19 13:48:34;;;;;;;;;;;26.20;43.50;;;;;;5072185;28;19936;-61
2023/10/19 13:51:05;;;;;;;;;;;26.20;43.50;;;;;;5083417;28;19932;-60
2023/10/19 13:53:32;;;;;;;;;;;26.20;43.50;;;;;;5080667;28;20380;-60
2023/10/19 13:55:59;;;;;;;;;;;26.10;43.80;;;;;;5077628;28;20002;-59
2023/10/19 13:58:27;;;;;;;;;;;26.10;44.00;;;;;;5069503;28;19977;-62
2023/10/19 14:00:54;;;;;;;;;;;26.10;44.30;;;;;;5072309;28;21322;-62
2023/10/19 14:03:21;;;;;;;;;;;26.10;44.30;;;;;;5075248;28;20351;-60
2023/10/19 14:05:48;;;;;;;;;;;26.10;44.50;;;;;;5082684;28;20015;-61
2023/10/19 14:08:16;;;;;;;;;;;26.10;44.50;;;;;;5077343;28;19924;-60
2023/10/19 14:10:44;;;;;;;;;;;26.00;44.30;;;;;;5079246;28;20001;-60
2023/10/19 14:13:12;;;;;;;;;;;26.00;44.60;;;;;;5078245;28;20643;-60
2023/10/19 14:15:39;;;;;;;;;;;26.00;44.60;;;;;;5076755;28;19925;-60
2023/10/19 14:18:06;;;;;;;;;;;26.00;44.60;;;;;;5073798;28;19924;-60
2023/10/19 14:20:34;;;;;;;;;;;25.90;44.60;;;;;;5076219;28;20368;-62
2023/10/19 14:23:04;;;;;;;;;;;26.00;44.60;;;;;;5069853;28;19931;-64
2023/10/19 14:25:36;;;;;;;;;;;25.90;44.80;;;;;;5076012;28;19924;-63
2023/10/19 14:28:06;;;;;;;;;;;25.90;44.60;;;;;;5076046;28;20023;-59
2023/10/19 14:30:34;;;;;;;;;;;25.90;44.70;;;;;;5077570;28;19928;-59
2023/10/19 14:33:01;;;;;;;;;;;25.90;44.90;;;;;;5071662;28;19931;-60
2023/10/19 14:35:28;;;;;;;;;;;25.90;44.60;;;;;;5077253;28;19924;-60
2023/10/19 14:37:56;;;;;;;;;;;25.90;44.50;;;;;;5076022;28;19928;-60
2023/10/19 14:40:25;;;;;;;;;;;25.90;44.50;;;;;;5080006;28;20018;-59